sensor_id;sensor_type;location;lat;lon;timestamp;P1;durP1;ratioP1;P2;durP2;ratioP2
21591;SDS011;10958;50.892;3.992;2023-02-01T00:01:41;18.00;;;5.75;;
21591;SDS011;10958;50.892;3.992;2023-02-01T00:04:07;17.88;;;5.43;;
21591;SDS011;10958;50.892;3.992;2023-02-01T00:06:36;23.05;;;5.13;;
21591;SDS011;10958;50.892;3.992;2023-02-01T00:09:02;20.98;;;4.75;;
21591;SDS011;10958;50.892;3.992;2023-02-01T00:11:28;24.05;;;4.32;;
21591;SDS011;10958;50.892;3.992;2023-02-01T00:13:54;17.90;;;4.07;;
21591;SDS011;10958;50.892;3.992;2023-02-01T00:16:24;13.88;;;3.72;;
21591;SDS011;10958;50.892;3.992;2023-02-01T00:18:52;17.13;;;4.18;;
21591;SDS011;10958;50.892;3.992;2023-02-01T00:21:29;14.50;;;3.85;;
21591;SDS011;10958;50.892;3.992;2023-02-01T00:23:56;12.15;;;2.95;;
21591;SDS011;10958;50.892;3.992;2023-02-01T00:26:27;19.70;;;4.13;;
21591;SDS011;10958;50.892;3.992;2023-02-01T00:28:55;15.27;;;3.55;;
21591;SDS011;10958;50.892;3.992;2023-02-01T00:31:21;13.82;;;3.55;;
21591;SDS011;10958;50.892;3.992;2023-02-01T00:33:50;22.30;;;3.30;;
21591;SDS011;10958;50.892;3.992;2023-02-01T00:36:18;17.27;;;3.50;;
21591;SDS011;10958;50.892;3.992;2023-02-01T00:38:43;12.02;;;3.22;;
21591;SDS011;10958;50.892;3.992;2023-02-01T00:41:11;15.48;;;3.97;;
21591;SDS011;10958;50.892;3.992;2023-02-01T00:43:38;21.77;;;4.05;;
21591;SDS011;10958;50.892;3.992;2023-02-01T00:46:04;19.33;;;3.83;;
21591;SDS011;10958;50.892;3.992;2023-02-01T00:48:30;20.85;;;3.85;;
21591;SDS011;10958;50.892;3.992;2023-02-01T00:51:00;19.42;;;4.68;;
21591;SDS011;10958;50.892;3.992;2023-02-01T00:53:29;12.25;;;4.05;;
21591;SDS011;10958;50.892;3.992;2023-02-01T00:55:55;17.23;;;4.10;;
21591;SDS011;10958;50.892;3.992;2023-02-01T00:58:23;17.30;;;4.20;;
21591;SDS011;10958;50.892;3.992;2023-02-01T01:01:05;20.20;;;4.32;;
21591;SDS011;10958;50.892;3.992;2023-02-01T01:03:45;17.30;;;4.13;;
21591;SDS011;10958;50.892;3.992;2023-02-01T01:06:14;19.17;;;4.05;;
21591;SDS011;10958;50.892;3.992;2023-02-01T01:08:41;14.23;;;4.07;;
21591;SDS011;10958;50.892;3.992;2023-02-01T01:11:10;19.63;;;3.90;;
21591;SDS011;10958;50.892;3.992;2023-02-01T01:13:40;19.48;;;4.07;;
21591;SDS011;10958;50.892;3.992;2023-02-01T01:16:07;23.38;;;4.25;;
21591;SDS011;10958;50.892;3.992;2023-02-01T01:18:34;21.92;;;3.97;;
21591;SDS011;10958;50.892;3.992;2023-02-01T01:21:01;16.05;;;4.78;;
21591;SDS011;10958;50.892;3.992;2023-02-01T01:23:32;20.25;;;3.88;;
21591;SDS011;10958;50.892;3.992;2023-02-01T01:25:59;23.90;;;4.60;;
21591;SDS011;10958;50.892;3.992;2023-02-01T01:31:01;17.15;;;3.60;;
21591;SDS011;10958;50.892;3.992;2023-02-01T01:33:37;21.20;;;3.83;;
21591;SDS011;10958;50.892;3.992;2023-02-01T01:36:05;19.88;;;3.95;;
21591;SDS011;10958;50.892;3.992;2023-02-01T01:38:32;15.52;;;3.80;;
21591;SDS011;10958;50.892;3.992;2023-02-01T01:41:00;18.92;;;3.33;;
21591;SDS011;10958;50.892;3.992;2023-02-01T01:43:44;16.80;;;4.10;;
21591;SDS011;10958;50.892;3.992;2023-02-01T01:46:27;12.10;;;3.13;;
21591;SDS011;10958;50.892;3.992;2023-02-01T01:49:02;20.45;;;3.97;;
21591;SDS011;10958;50.892;3.992;2023-02-01T01:51:43;14.77;;;4.10;;
21591;SDS011;10958;50.892;3.992;2023-02-01T01:56:46;14.80;;;3.22;;
21591;SDS011;10958;50.892;3.992;2023-02-01T01:59:24;17.88;;;4.40;;
21591;SDS011;10958;50.892;3.992;2023-02-01T02:01:59;19.98;;;4.18;;
21591;SDS011;10958;50.892;3.992;2023-02-01T02:04:44;14.48;;;3.42;;
21591;SDS011;10958;50.892;3.992;2023-02-01T02:07:23;21.50;;;3.95;;
21591;SDS011;10958;50.892;3.992;2023-02-01T02:10:03;18.83;;;3.20;;
21591;SDS011;10958;50.892;3.992;2023-02-01T02:15:00;23.10;;;3.92;;
21591;SDS011;10958;50.892;3.992;2023-02-01T02:17:55;20.13;;;3.85;;
21591;SDS011;10958;50.892;3.992;2023-02-01T02:37:13;18.98;;;3.50;;
21591;SDS011;10958;50.892;3.992;2023-02-01T02:45:23;16.20;;;3.63;;
21591;SDS011;10958;50.892;3.992;2023-02-01T02:56:43;23.08;;;3.38;;
21591;SDS011;10958;50.892;3.992;2023-02-01T02:59:30;18.90;;;3.45;;
21591;SDS011;10958;50.892;3.992;2023-02-01T03:02:17;16.67;;;3.15;;
21591;SDS011;10958;50.892;3.992;2023-02-01T03:05:02;22.35;;;4.32;;
21591;SDS011;10958;50.892;3.992;2023-02-01T03:10:16;15.82;;;3.38;;
21591;SDS011;10958;50.892;3.992;2023-02-01T03:12:49;18.30;;;3.65;;
21591;SDS011;10958;50.892;3.992;2023-02-01T03:15:53;18.58;;;3.72;;
21591;SDS011;10958;50.892;3.992;2023-02-01T03:18:36;18.17;;;3.08;;
21591;SDS011;10958;50.892;3.992;2023-02-01T03:21:13;14.63;;;3.15;;
21591;SDS011;10958;50.892;3.992;2023-02-01T03:23:49;15.05;;;3.38;;
21591;SDS011;10958;50.892;3.992;2023-02-01T03:26:25;19.42;;;3.28;;
21591;SDS011;10958;50.892;3.992;2023-02-01T03:29:03;18.30;;;3.75;;
21591;SDS011;10958;50.892;3.992;2023-02-01T03:31:39;17.25;;;3.10;;
21591;SDS011;10958;50.892;3.992;2023-02-01T03:34:05;14.43;;;3.17;;
21591;SDS011;10958;50.892;3.992;2023-02-01T03:36:42;20.73;;;3.40;;
21591;SDS011;10958;50.892;3.992;2023-02-01T03:39:17;18.40;;;3.35;;
21591;SDS011;10958;50.892;3.992;2023-02-01T03:42:48;20.25;;;3.78;;
21591;SDS011;10958;50.892;3.992;2023-02-01T03:45:14;14.98;;;2.70;;
21591;SDS011;10958;50.892;3.992;2023-02-01T03:48:02;23.13;;;4.22;;
21591;SDS011;10958;50.892;3.992;2023-02-01T03:50:30;17.85;;;3.42;;
21591;SDS011;10958;50.892;3.992;2023-02-01T03:55:31;26.88;;;3.63;;
21591;SDS011;10958;50.892;3.992;2023-02-01T04:00:40;19.65;;;3.20;;
21591;SDS011;10958;50.892;3.992;2023-02-01T04:03:13;18.80;;;3.38;;
21591;SDS011;10958;50.892;3.992;2023-02-01T04:05:38;20.70;;;3.45;;
21591;SDS011;10958;50.892;3.992;2023-02-01T04:08:07;14.88;;;2.85;;
21591;SDS011;10958;50.892;3.992;2023-02-01T04:10:38;20.13;;;3.33;;
21591;SDS011;10958;50.892;3.992;2023-02-01T04:13:08;14.75;;;2.97;;
21591;SDS011;10958;50.892;3.992;2023-02-01T04:15:43;20.40;;;3.67;;
21591;SDS011;10958;50.892;3.992;2023-02-01T04:18:18;19.75;;;3.78;;
21591;SDS011;10958;50.892;3.992;2023-02-01T04:20:43;17.38;;;3.25;;
21591;SDS011;10958;50.892;3.992;2023-02-01T04:23:09;16.55;;;3.20;;
21591;SDS011;10958;50.892;3.992;2023-02-01T04:25:43;17.27;;;3.65;;
21591;SDS011;10958;50.892;3.992;2023-02-01T04:28:23;17.33;;;3.10;;
21591;SDS011;10958;50.892;3.992;2023-02-01T04:30:52;21.55;;;3.40;;
21591;SDS011;10958;50.892;3.992;2023-02-01T04:35:47;30.17;;;3.38;;
21591;SDS011;10958;50.892;3.992;2023-02-01T04:38:12;22.13;;;3.15;;
21591;SDS011;10958;50.892;3.992;2023-02-01T04:40:38;21.33;;;3.55;;
21591;SDS011;10958;50.892;3.992;2023-02-01T04:43:04;19.75;;;3.17;;
21591;SDS011;10958;50.892;3.992;2023-02-01T04:45:30;18.15;;;3.55;;
21591;SDS011;10958;50.892;3.992;2023-02-01T04:48:18;24.23;;;3.35;;
21591;SDS011;10958;50.892;3.992;2023-02-01T04:50:44;23.83;;;3.03;;
21591;SDS011;10958;50.892;3.992;2023-02-01T04:53:12;26.65;;;4.13;;
21591;SDS011;10958;50.892;3.992;2023-02-01T04:55:44;13.90;;;2.72;;
21591;SDS011;10958;50.892;3.992;2023-02-01T04:58:13;17.83;;;2.85;;
21591;SDS011;10958;50.892;3.992;2023-02-01T05:00:38;19.10;;;3.08;;
21591;SDS011;10958;50.892;3.992;2023-02-01T05:03:04;19.35;;;2.90;;
21591;SDS011;10958;50.892;3.992;2023-02-01T05:05:30;17.40;;;3.35;;
21591;SDS011;10958;50.892;3.992;2023-02-01T05:07:57;22.00;;;3.53;;
21591;SDS011;10958;50.892;3.992;2023-02-01T05:10:25;19.80;;;3.17;;
21591;SDS011;10958;50.892;3.992;2023-02-01T05:12:51;15.20;;;3.10;;
21591;SDS011;10958;50.892;3.992;2023-02-01T05:15:35;15.73;;;3.60;;
21591;SDS011;10958;50.892;3.992;2023-02-01T05:18:01;15.30;;;3.00;;
21591;SDS011;10958;50.892;3.992;2023-02-01T05:20:27;21.55;;;3.47;;
21591;SDS011;10958;50.892;3.992;2023-02-01T05:22:54;22.08;;;3.65;;
21591;SDS011;10958;50.892;3.992;2023-02-01T05:25:22;19.83;;;3.88;;
21591;SDS011;10958;50.892;3.992;2023-02-01T05:27:47;18.08;;;3.33;;
21591;SDS011;10958;50.892;3.992;2023-02-01T05:30:13;15.05;;;2.97;;
21591;SDS011;10958;50.892;3.992;2023-02-01T05:32:39;20.00;;;3.90;;
21591;SDS011;10958;50.892;3.992;2023-02-01T05:35:05;19.30;;;2.97;;
21591;SDS011;10958;50.892;3.992;2023-02-01T05:37:34;14.13;;;2.50;;
21591;SDS011;10958;50.892;3.992;2023-02-01T05:40:00;20.92;;;3.38;;
21591;SDS011;10958;50.892;3.992;2023-02-01T05:42:26;19.92;;;3.47;;
21591;SDS011;10958;50.892;3.992;2023-02-01T05:44:52;21.17;;;3.47;;
21591;SDS011;10958;50.892;3.992;2023-02-01T05:47:20;16.33;;;3.10;;
21591;SDS011;10958;50.892;3.992;2023-02-01T05:49:47;17.13;;;3.15;;
21591;SDS011;10958;50.892;3.992;2023-02-01T05:52:13;18.95;;;3.08;;
21591;SDS011;10958;50.892;3.992;2023-02-01T05:54:44;22.73;;;3.38;;
21591;SDS011;10958;50.892;3.992;2023-02-01T05:57:11;24.42;;;3.92;;
21591;SDS011;10958;50.892;3.992;2023-02-01T05:59:37;19.40;;;3.22;;
21591;SDS011;10958;50.892;3.992;2023-02-01T06:02:06;19.58;;;3.35;;
21591;SDS011;10958;50.892;3.992;2023-02-01T06:04:33;16.13;;;2.72;;
21591;SDS011;10958;50.892;3.992;2023-02-01T06:07:01;17.67;;;3.47;;
21591;SDS011;10958;50.892;3.992;2023-02-01T06:09:27;20.98;;;3.95;;
21591;SDS011;10958;50.892;3.992;2023-02-01T06:11:53;16.42;;;3.20;;
21591;SDS011;10958;50.892;3.992;2023-02-01T06:14:19;19.08;;;2.90;;
21591;SDS011;10958;50.892;3.992;2023-02-01T06:16:45;12.70;;;2.95;;
21591;SDS011;10958;50.892;3.992;2023-02-01T06:19:12;19.08;;;3.92;;
21591;SDS011;10958;50.892;3.992;2023-02-01T06:21:38;18.77;;;3.38;;
21591;SDS011;10958;50.892;3.992;2023-02-01T06:24:07;15.45;;;2.97;;
21591;SDS011;10958;50.892;3.992;2023-02-01T06:26:33;22.75;;;4.22;;
21591;SDS011;10958;50.892;3.992;2023-02-01T06:28:59;18.30;;;3.65;;
21591;SDS011;10958;50.892;3.992;2023-02-01T06:31:24;14.02;;;3.22;;
21591;SDS011;10958;50.892;3.992;2023-02-01T06:33:53;24.90;;;3.38;;
21591;SDS011;10958;50.892;3.992;2023-02-01T06:36:19;19.92;;;3.72;;
21591;SDS011;10958;50.892;3.992;2023-02-01T06:38:46;19.67;;;3.15;;
21591;SDS011;10958;50.892;3.992;2023-02-01T06:41:13;23.48;;;3.47;;
21591;SDS011;10958;50.892;3.992;2023-02-01T06:43:40;25.67;;;3.67;;
21591;SDS011;10958;50.892;3.992;2023-02-01T06:46:09;14.10;;;3.28;;
21591;SDS011;10958;50.892;3.992;2023-02-01T06:48:36;16.77;;;2.30;;
21591;SDS011;10958;50.892;3.992;2023-02-01T06:51:02;26.17;;;4.35;;
21591;SDS011;10958;50.892;3.992;2023-02-01T06:53:29;16.13;;;3.22;;
21591;SDS011;10958;50.892;3.992;2023-02-01T06:55:55;22.95;;;3.28;;
21591;SDS011;10958;50.892;3.992;2023-02-01T06:58:31;19.63;;;2.88;;
21591;SDS011;10958;50.892;3.992;2023-02-01T07:00:58;24.02;;;3.88;;
21591;SDS011;10958;50.892;3.992;2023-02-01T07:03:30;27.73;;;3.70;;
21591;SDS011;10958;50.892;3.992;2023-02-01T07:05:56;19.73;;;4.75;;
21591;SDS011;10958;50.892;3.992;2023-02-01T07:10:54;19.92;;;3.40;;
21591;SDS011;10958;50.892;3.992;2023-02-01T07:13:20;13.77;;;2.78;;
21591;SDS011;10958;50.892;3.992;2023-02-01T07:15:46;23.45;;;3.28;;
21591;SDS011;10958;50.892;3.992;2023-02-01T07:18:12;16.95;;;3.50;;
21591;SDS011;10958;50.892;3.992;2023-02-01T07:20:41;16.85;;;2.70;;
21591;SDS011;10958;50.892;3.992;2023-02-01T07:23:12;25.15;;;4.43;;
21591;SDS011;10958;50.892;3.992;2023-02-01T07:25:38;22.67;;;3.67;;
21591;SDS011;10958;50.892;3.992;2023-02-01T07:28:04;21.83;;;3.60;;
21591;SDS011;10958;50.892;3.992;2023-02-01T07:30:30;24.17;;;3.78;;
21591;SDS011;10958;50.892;3.992;2023-02-01T07:32:58;13.20;;;2.40;;
21591;SDS011;10958;50.892;3.992;2023-02-01T07:35:26;17.10;;;3.45;;
21591;SDS011;10958;50.892;3.992;2023-02-01T07:37:52;18.85;;;3.47;;
21591;SDS011;10958;50.892;3.992;2023-02-01T07:40:18;23.98;;;3.72;;
21591;SDS011;10958;50.892;3.992;2023-02-01T07:42:53;17.92;;;3.63;;
21591;SDS011;10958;50.892;3.992;2023-02-01T07:45:20;16.42;;;3.47;;
21591;SDS011;10958;50.892;3.992;2023-02-01T07:47:47;19.17;;;3.85;;
21591;SDS011;10958;50.892;3.992;2023-02-01T07:52:42;21.25;;;3.80;;
21591;SDS011;10958;50.892;3.992;2023-02-01T07:55:07;16.30;;;3.58;;
21591;SDS011;10958;50.892;3.992;2023-02-01T07:57:33;21.77;;;3.55;;
21591;SDS011;10958;50.892;3.992;2023-02-01T07:59:59;17.05;;;3.95;;
21591;SDS011;10958;50.892;3.992;2023-02-01T08:02:43;18.27;;;3.60;;
21591;SDS011;10958;50.892;3.992;2023-02-01T08:05:09;23.65;;;3.28;;
21591;SDS011;10958;50.892;3.992;2023-02-01T08:07:35;19.98;;;3.25;;
21591;SDS011;10958;50.892;3.992;2023-02-01T08:10:01;17.35;;;3.13;;
21591;SDS011;10958;50.892;3.992;2023-02-01T08:12:26;14.02;;;3.30;;
21591;SDS011;10958;50.892;3.992;2023-02-01T08:14:53;14.52;;;3.17;;
21591;SDS011;10958;50.892;3.992;2023-02-01T08:17:19;22.92;;;3.35;;
21591;SDS011;10958;50.892;3.992;2023-02-01T08:22:16;15.90;;;2.95;;
21591;SDS011;10958;50.892;3.992;2023-02-01T08:24:42;16.73;;;3.60;;
21591;SDS011;10958;50.892;3.992;2023-02-01T08:27:07;21.35;;;3.30;;
21591;SDS011;10958;50.892;3.992;2023-02-01T08:29:33;24.58;;;3.70;;
21591;SDS011;10958;50.892;3.992;2023-02-01T08:31:58;23.45;;;3.97;;
21591;SDS011;10958;50.892;3.992;2023-02-01T08:34:24;21.98;;;4.50;;
21591;SDS011;10958;50.892;3.992;2023-02-01T08:39:25;23.27;;;3.08;;
21591;SDS011;10958;50.892;3.992;2023-02-01T08:41:51;18.20;;;3.05;;
21591;SDS011;10958;50.892;3.992;2023-02-01T08:44:35;16.85;;;3.05;;
21591;SDS011;10958;50.892;3.992;2023-02-01T08:47:07;20.33;;;4.22;;
21591;SDS011;10958;50.892;3.992;2023-02-01T08:49:46;14.25;;;2.97;;
21591;SDS011;10958;50.892;3.992;2023-02-01T08:52:25;15.88;;;2.92;;
21591;SDS011;10958;50.892;3.992;2023-02-01T08:55:00;18.88;;;3.53;;
21591;SDS011;10958;50.892;3.992;2023-02-01T08:57:27;16.05;;;3.15;;
21591;SDS011;10958;50.892;3.992;2023-02-01T08:59:53;15.13;;;2.90;;
21591;SDS011;10958;50.892;3.992;2023-02-01T09:02:19;17.70;;;3.35;;
21591;SDS011;10958;50.892;3.992;2023-02-01T09:04:45;19.33;;;3.10;;
21591;SDS011;10958;50.892;3.992;2023-02-01T09:07:12;15.20;;;3.05;;
21591;SDS011;10958;50.892;3.992;2023-02-01T09:09:39;19.20;;;3.42;;
21591;SDS011;10958;50.892;3.992;2023-02-01T09:12:05;23.05;;;3.55;;
21591;SDS011;10958;50.892;3.992;2023-02-01T09:14:31;13.05;;;2.67;;
21591;SDS011;10958;50.892;3.992;2023-02-01T09:16:56;14.35;;;2.80;;
21591;SDS011;10958;50.892;3.992;2023-02-01T09:19:23;18.30;;;2.80;;
21591;SDS011;10958;50.892;3.992;2023-02-01T09:21:48;17.27;;;3.08;;
21591;SDS011;10958;50.892;3.992;2023-02-01T09:24:14;15.10;;;2.95;;
21591;SDS011;10958;50.892;3.992;2023-02-01T09:26:40;18.98;;;3.70;;
21591;SDS011;10958;50.892;3.992;2023-02-01T09:29:10;16.47;;;2.97;;
21591;SDS011;10958;50.892;3.992;2023-02-01T09:31:36;21.20;;;3.73;;
21591;SDS011;10958;50.892;3.992;2023-02-01T09:34:03;15.02;;;3.00;;
21591;SDS011;10958;50.892;3.992;2023-02-01T09:36:29;14.32;;;2.85;;
21591;SDS011;10958;50.892;3.992;2023-02-01T09:38:55;13.88;;;3.28;;
21591;SDS011;10958;50.892;3.992;2023-02-01T09:44:03;12.68;;;3.25;;
21591;SDS011;10958;50.892;3.992;2023-02-01T09:46:31;15.05;;;3.03;;
21591;SDS011;10958;50.892;3.992;2023-02-01T09:49:00;13.32;;;2.58;;
21591;SDS011;10958;50.892;3.992;2023-02-01T09:51:31;16.90;;;2.78;;
21591;SDS011;10958;50.892;3.992;2023-02-01T09:57:24;16.30;;;3.42;;
21591;SDS011;10958;50.892;3.992;2023-02-01T10:00:00;14.48;;;2.50;;
21591;SDS011;10958;50.892;3.992;2023-02-01T10:02:31;17.85;;;3.20;;
21591;SDS011;10958;50.892;3.992;2023-02-01T10:05:03;13.10;;;2.90;;
21591;SDS011;10958;50.892;3.992;2023-02-01T10:10:46;28.88;;;4.85;;
21591;SDS011;10958;50.892;3.992;2023-02-01T10:16:19;18.25;;;3.47;;
21591;SDS011;10958;50.892;3.992;2023-02-01T10:27:14;13.02;;;2.45;;
21591;SDS011;10958;50.892;3.992;2023-02-01T10:29:45;15.88;;;2.83;;
21591;SDS011;10958;50.892;3.992;2023-02-01T10:32:20;16.83;;;2.92;;
21591;SDS011;10958;50.892;3.992;2023-02-01T10:34:50;19.20;;;3.03;;
21591;SDS011;10958;50.892;3.992;2023-02-01T10:37:27;17.80;;;2.92;;
21591;SDS011;10958;50.892;3.992;2023-02-01T10:39:55;14.60;;;2.72;;
21591;SDS011;10958;50.892;3.992;2023-02-01T10:42:26;16.95;;;2.45;;
21591;SDS011;10958;50.892;3.992;2023-02-01T10:44:55;14.27;;;3.08;;
21591;SDS011;10958;50.892;3.992;2023-02-01T10:47:23;11.63;;;2.30;;
21591;SDS011;10958;50.892;3.992;2023-02-01T10:49:54;19.08;;;2.75;;
21591;SDS011;10958;50.892;3.992;2023-02-01T10:52:31;21.65;;;3.03;;
21591;SDS011;10958;50.892;3.992;2023-02-01T10:58:01;13.70;;;2.85;;
21591;SDS011;10958;50.892;3.992;2023-02-01T11:03:40;17.92;;;2.85;;
21591;SDS011;10958;50.892;3.992;2023-02-01T11:15:22;16.35;;;2.47;;
21591;SDS011;10958;50.892;3.992;2023-02-01T11:18:38;19.10;;;2.53;;
21591;SDS011;10958;50.892;3.992;2023-02-01T11:21:05;17.83;;;2.72;;
21591;SDS011;10958;50.892;3.992;2023-02-01T11:23:39;14.65;;;2.33;;
21591;SDS011;10958;50.892;3.992;2023-02-01T11:29:18;10.40;;;2.40;;
21591;SDS011;10958;50.892;3.992;2023-02-01T11:32:00;9.57;;;2.10;;
21591;SDS011;10958;50.892;3.992;2023-02-01T11:35:01;11.40;;;2.10;;
21591;SDS011;10958;50.892;3.992;2023-02-01T11:37:37;10.75;;;2.05;;
21591;SDS011;10958;50.892;3.992;2023-02-01T11:43:08;15.95;;;3.10;;
21591;SDS011;10958;50.892;3.992;2023-02-01T11:45:40;10.93;;;1.83;;
21591;SDS011;10958;50.892;3.992;2023-02-01T11:48:17;11.70;;;2.45;;
21591;SDS011;10958;50.892;3.992;2023-02-01T11:56:55;16.63;;;2.20;;
21591;SDS011;10958;50.892;3.992;2023-02-01T12:02:15;8.07;;;1.48;;
21591;SDS011;10958;50.892;3.992;2023-02-01T12:08:04;7.05;;;1.50;;
21591;SDS011;10958;50.892;3.992;2023-02-01T12:16:35;10.90;;;2.00;;
21591;SDS011;10958;50.892;3.992;2023-02-01T12:27:54;8.93;;;2.10;;
21591;SDS011;10958;50.892;3.992;2023-02-01T12:30:41;16.15;;;2.10;;
21591;SDS011;10958;50.892;3.992;2023-02-01T12:36:05;10.37;;;1.77;;
21591;SDS011;10958;50.892;3.992;2023-02-01T12:41:28;6.70;;;1.77;;
21591;SDS011;10958;50.892;3.992;2023-02-01T12:44:03;14.38;;;1.73;;
21591;SDS011;10958;50.892;3.992;2023-02-01T12:46:56;9.60;;;1.63;;
21591;SDS011;10958;50.892;3.992;2023-02-01T12:52:01;9.32;;;2.10;;
21591;SDS011;10958;50.892;3.992;2023-02-01T12:54:35;6.78;;;1.55;;
21591;SDS011;10958;50.892;3.992;2023-02-01T12:57:30;12.48;;;1.73;;
21591;SDS011;10958;50.892;3.992;2023-02-01T13:00:07;9.60;;;1.80;;
21591;SDS011;10958;50.892;3.992;2023-02-01T13:02:43;9.52;;;1.50;;
21591;SDS011;10958;50.892;3.992;2023-02-01T13:05:34;13.82;;;1.92;;
21591;SDS011;10958;50.892;3.992;2023-02-01T13:08:10;12.02;;;1.92;;
21591;SDS011;10958;50.892;3.992;2023-02-01T13:13:11;15.88;;;1.90;;
21591;SDS011;10958;50.892;3.992;2023-02-01T13:16:35;8.60;;;1.75;;
21591;SDS011;10958;50.892;3.992;2023-02-01T13:18:52;14.73;;;1.70;;
21591;SDS011;10958;50.892;3.992;2023-02-01T13:21:29;7.25;;;1.60;;
21591;SDS011;10958;50.892;3.992;2023-02-01T13:24:00;13.35;;;1.63;;
21591;SDS011;10958;50.892;3.992;2023-02-01T13:26:27;12.80;;;1.58;;
21591;SDS011;10958;50.892;3.992;2023-02-01T13:28:57;13.65;;;1.92;;
21591;SDS011;10958;50.892;3.992;2023-02-01T13:45:22;10.15;;;2.47;;
21591;SDS011;10958;50.892;3.992;2023-02-01T13:47:54;9.23;;;1.75;;
21591;SDS011;10958;50.892;3.992;2023-02-01T13:50:23;8.27;;;1.92;;
21591;SDS011;10958;50.892;3.992;2023-02-01T13:55:41;12.05;;;1.98;;
21591;SDS011;10958;50.892;3.992;2023-02-01T14:00:40;15.48;;;2.45;;
21591;SDS011;10958;50.892;3.992;2023-02-01T14:03:19;12.85;;;1.83;;
21591;SDS011;10958;50.892;3.992;2023-02-01T14:08:13;10.45;;;2.15;;
21591;SDS011;10958;50.892;3.992;2023-02-01T14:10:56;8.40;;;1.70;;
21591;SDS011;10958;50.892;3.992;2023-02-01T14:13:36;13.98;;;1.95;;
21591;SDS011;10958;50.892;3.992;2023-02-01T14:23:41;11.75;;;1.70;;
21591;SDS011;10958;50.892;3.992;2023-02-01T14:26:10;13.07;;;2.00;;
21591;SDS011;10958;50.892;3.992;2023-02-01T14:28:40;10.40;;;1.83;;
21591;SDS011;10958;50.892;3.992;2023-02-01T14:31:14;9.32;;;1.88;;
21591;SDS011;10958;50.892;3.992;2023-02-01T14:34:10;15.15;;;2.10;;
21591;SDS011;10958;50.892;3.992;2023-02-01T14:36:41;11.35;;;2.92;;
21591;SDS011;10958;50.892;3.992;2023-02-01T14:39:21;7.82;;;2.38;;
21591;SDS011;10958;50.892;3.992;2023-02-01T14:41:59;7.15;;;2.22;;
21591;SDS011;10958;50.892;3.992;2023-02-01T14:44:32;10.18;;;1.80;;
21591;SDS011;10958;50.892;3.992;2023-02-01T14:49:53;13.02;;;2.33;;
21591;SDS011;10958;50.892;3.992;2023-02-01T14:52:29;17.17;;;3.42;;
21591;SDS011;10958;50.892;3.992;2023-02-01T14:55:05;12.73;;;2.00;;
21591;SDS011;10958;50.892;3.992;2023-02-01T14:57:36;9.20;;;1.75;;
21591;SDS011;10958;50.892;3.992;2023-02-01T15:00:14;10.55;;;2.42;;
21591;SDS011;10958;50.892;3.992;2023-02-01T15:02:45;10.70;;;1.85;;
21591;SDS011;10958;50.892;3.992;2023-02-01T15:05:25;10.48;;;2.08;;
21591;SDS011;10958;50.892;3.992;2023-02-01T15:07:55;8.50;;;2.22;;
21591;SDS011;10958;50.892;3.992;2023-02-01T15:10:25;12.85;;;2.85;;
21591;SDS011;10958;50.892;3.992;2023-02-01T15:12:52;11.60;;;2.28;;
21591;SDS011;10958;50.892;3.992;2023-02-01T15:15:21;11.65;;;2.85;;
21591;SDS011;10958;50.892;3.992;2023-02-01T15:17:51;14.25;;;2.25;;
21591;SDS011;10958;50.892;3.992;2023-02-01T15:20:25;17.52;;;3.13;;
21591;SDS011;10958;50.892;3.992;2023-02-01T15:23:00;12.90;;;2.58;;
21591;SDS011;10958;50.892;3.992;2023-02-01T15:25:30;12.00;;;2.00;;
21591;SDS011;10958;50.892;3.992;2023-02-01T15:28:03;16.13;;;2.92;;
21591;SDS011;10958;50.892;3.992;2023-02-01T15:30:33;13.88;;;2.80;;
21591;SDS011;10958;50.892;3.992;2023-02-01T15:33:13;12.52;;;3.05;;
21591;SDS011;10958;50.892;3.992;2023-02-01T15:46:39;10.70;;;2.28;;
21591;SDS011;10958;50.892;3.992;2023-02-01T15:52:03;22.67;;;4.18;;
21591;SDS011;10958;50.892;3.992;2023-02-01T15:54:48;13.13;;;2.70;;
21591;SDS011;10958;50.892;3.992;2023-02-01T15:57:27;10.57;;;2.28;;
21591;SDS011;10958;50.892;3.992;2023-02-01T16:03:05;13.60;;;2.13;;
21591;SDS011;10958;50.892;3.992;2023-02-01T16:05:53;17.50;;;2.42;;
21591;SDS011;10958;50.892;3.992;2023-02-01T16:08:32;9.40;;;2.35;;
21591;SDS011;10958;50.892;3.992;2023-02-01T16:13:33;17.52;;;2.75;;
21591;SDS011;10958;50.892;3.992;2023-02-01T16:16:03;18.60;;;3.38;;
21591;SDS011;10958;50.892;3.992;2023-02-01T16:18:43;14.70;;;2.20;;
21591;SDS011;10958;50.892;3.992;2023-02-01T16:21:09;16.70;;;2.15;;
21591;SDS011;10958;50.892;3.992;2023-02-01T16:26:44;13.25;;;2.60;;
21591;SDS011;10958;50.892;3.992;2023-02-01T16:29:33;14.57;;;2.08;;
21591;SDS011;10958;50.892;3.992;2023-02-01T16:32:17;17.17;;;3.63;;
21591;SDS011;10958;50.892;3.992;2023-02-01T16:34:46;22.60;;;3.58;;
21591;SDS011;10958;50.892;3.992;2023-02-01T16:37:13;13.30;;;2.63;;
21591;SDS011;10958;50.892;3.992;2023-02-01T16:39:46;15.55;;;2.40;;
21591;SDS011;10958;50.892;3.992;2023-02-01T16:42:12;17.85;;;2.83;;
21591;SDS011;10958;50.892;3.992;2023-02-01T16:44:39;16.90;;;2.53;;
21591;SDS011;10958;50.892;3.992;2023-02-01T16:47:12;14.68;;;2.17;;
21591;SDS011;10958;50.892;3.992;2023-02-01T16:49:42;16.27;;;2.63;;
21591;SDS011;10958;50.892;3.992;2023-02-01T16:52:19;15.23;;;2.60;;
21591;SDS011;10958;50.892;3.992;2023-02-01T16:54:48;15.27;;;2.60;;
21591;SDS011;10958;50.892;3.992;2023-02-01T16:57:14;13.27;;;3.10;;
21591;SDS011;10958;50.892;3.992;2023-02-01T16:59:44;14.82;;;2.47;;
21591;SDS011;10958;50.892;3.992;2023-02-01T17:02:15;18.15;;;3.13;;
21591;SDS011;10958;50.892;3.992;2023-02-01T17:04:44;15.82;;;2.80;;
21591;SDS011;10958;50.892;3.992;2023-02-01T17:07:19;18.73;;;3.08;;
21591;SDS011;10958;50.892;3.992;2023-02-01T17:09:45;25.17;;;2.97;;
21591;SDS011;10958;50.892;3.992;2023-02-01T17:12:24;22.10;;;3.08;;
21591;SDS011;10958;50.892;3.992;2023-02-01T17:14:52;19.83;;;3.35;;
21591;SDS011;10958;50.892;3.992;2023-02-01T17:17:19;13.80;;;2.85;;
21591;SDS011;10958;50.892;3.992;2023-02-01T17:19:46;15.95;;;3.03;;
21591;SDS011;10958;50.892;3.992;2023-02-01T17:22:21;20.23;;;3.95;;
21591;SDS011;10958;50.892;3.992;2023-02-01T17:24:48;25.83;;;3.15;;
21591;SDS011;10958;50.892;3.992;2023-02-01T17:27:14;16.48;;;2.50;;
21591;SDS011;10958;50.892;3.992;2023-02-01T17:29:43;15.82;;;3.28;;
21591;SDS011;10958;50.892;3.992;2023-02-01T17:32:18;18.13;;;3.00;;
21591;SDS011;10958;50.892;3.992;2023-02-01T17:34:46;21.58;;;3.42;;
21591;SDS011;10958;50.892;3.992;2023-02-01T17:37:26;17.00;;;3.03;;
21591;SDS011;10958;50.892;3.992;2023-02-01T17:39:59;16.38;;;3.35;;
21591;SDS011;10958;50.892;3.992;2023-02-01T17:42:28;13.73;;;3.10;;
21591;SDS011;10958;50.892;3.992;2023-02-01T17:45:01;18.05;;;3.45;;
21591;SDS011;10958;50.892;3.992;2023-02-01T17:47:55;21.47;;;4.17;;
21591;SDS011;10958;50.892;3.992;2023-02-01T17:50:20;17.15;;;3.63;;
21591;SDS011;10958;50.892;3.992;2023-02-01T17:52:51;23.17;;;3.25;;
21591;SDS011;10958;50.892;3.992;2023-02-01T17:55:17;19.60;;;4.30;;
21591;SDS011;10958;50.892;3.992;2023-02-01T17:57:46;20.92;;;3.60;;
21591;SDS011;10958;50.892;3.992;2023-02-01T18:00:14;22.38;;;3.95;;
21591;SDS011;10958;50.892;3.992;2023-02-01T18:02:41;17.60;;;3.80;;
21591;SDS011;10958;50.892;3.992;2023-02-01T18:05:14;13.98;;;3.45;;
21591;SDS011;10958;50.892;3.992;2023-02-01T18:07:43;18.98;;;3.55;;
21591;SDS011;10958;50.892;3.992;2023-02-01T18:10:11;23.65;;;3.50;;
21591;SDS011;10958;50.892;3.992;2023-02-01T18:12:37;20.40;;;3.95;;
21591;SDS011;10958;50.892;3.992;2023-02-01T18:15:19;17.40;;;3.22;;